Latest Coastal Weather Observations for Yeppoon

IDQ60701

Issued at 5:12 am EST Monday 2 May 2016 (issued every 10 minutes, with the page automatically refreshed every 10 minutes)

About coastal observations | Map of coastal stations | Coastal observations for QLD | Marine services | Other Formats
Station Details ID: 033294 Name: YEPPOON THE ESPLANADE Lat: -23.14 Lon: 150.75 Height: 5.5 m
Data from the previous 72 hours. | See also: Recent months at Yeppoon
Date/Time
EST
Temp

°C
Wind Pressure Rain
since 9am
mm
Weather Cloud Vis
km
Sea
Height
m
Swell
Dir
 
Speed
knots
Gust
knots
hPa Trend Height
m
Period
s
Dir
02/05:00am 21.5 WSW 4 4 1014.7 - 0.0 - - - - - - -
02/04:30am 21.5 SW 4 5 1014.5 - 0.0 - - - - - - -
02/04:00am 21.6 W 5 8 1014.4 - 0.0 - - - - - - -
02/03:30am 21.7 W 5 6 1014.6 - 0.0 - - - - - - -
02/03:00am 22.0 WSW 3 4 1014.7 - 0.0 - - - - - - -
02/02:30am 22.5 WSW 3 4 1014.9 - 0.0 - - - - - - -
02/02:00am 22.6 CALM 0 3 1015.0 - 0.0 - - - - - - -
02/01:30am 22.8 W 3 5 1015.4 - 0.0 - - - - - - -
02/01:00am 22.9 WSW 2 7 1015.7 - 0.0 - - - - - - -
02/12:30am 23.1 WSW 3 5 1015.9 - 0.0 - - - - - - -
02/12:00am 23.1 CALM 0 0 1016.0 - 0.0 - - - - - - -
 
Date/Time
EST
Temp

°C
Wind Pressure Rain
since 9am
mm
Weather Cloud Vis
km
Sea
Height
m
Swell
Dir
 
Speed
knots
Gust
knots
hPa Trend Height
m
Period
s
Dir
01/11:30pm 24.2 N 2 5 1016.1 - 0.0 - - - - - - -
01/11:00pm 24.3 N 4 6 1016.4 - 0.0 - - - - - - -
01/10:30pm 24.0 N 3 5 1016.5 - 0.0 - - - - - - -
01/10:00pm 24.0 CALM 0 0 1016.7 - 0.0 - - - - - - -
01/09:30pm 24.7 N 1 4 1016.9 - 0.0 - - - - - - -
01/09:00pm 25.1 N 6 7 1016.9 - 0.0 - - - - - - -
01/08:30pm 25.2 N 6 7 1016.9 - 0.0 - - - - - - -
01/08:00pm 25.3 N 7 8 1016.7 - 0.0 - - - - - - -
01/07:30pm 25.4 NNE 7 8 1016.5 - 0.0 - - - - - - -
01/07:00pm 25.6 NNE 9 12 1016.1 - 0.0 - - - - - - -
01/06:30pm 25.5 NNE 8 11 1015.9 - 0.0 - - - - - - -
01/06:00pm 25.5 NNE 9 11 1015.7 - 0.0 - - - - - - -
01/05:30pm 25.6 NNE 9 12 1015.7 - 0.0 - - - - - - -
01/05:00pm 25.6 NNE 11 13 1015.5 - 0.0 - - - - - - -
01/04:30pm 25.4 NNE 9 11 1015.2 - 0.0 - - - - - - -
01/04:00pm 25.6 NE 9 11 1014.8 - 0.0 - - - - - - -
01/03:30pm 25.6 NE 11 12 1014.6 - 0.0 - - - - - - -
01/03:00pm 25.9 ENE 10 12 1014.7 - 0.0 - - - - - - -
01/02:30pm 26.0 NE 10 11 1014.6 - 0.0 - - - - - - -
01/02:00pm 26.0 NE 9 10 1014.8 - 0.0 - - - - - - -
01/01:30pm 26.2 ENE 8 9 1015.0 - 0.0 - - - - - - -
01/01:00pm 26.2 ENE 7 9 1015.3 - 0.0 - - - - - - -
01/12:30pm 26.0 ENE 7 9 1015.8 - 0.0 - - - - - - -
01/12:00pm 25.9 ENE 8 10 1016.1 - 0.0 - - - - - - -
01/11:30am 25.7 ENE 8 9 1016.7 - 0.0 - - - - - - -
01/11:00am 25.8 E 8 9 1017.2 - 0.0 - - - - - - -
01/10:30am 25.8 E 8 9 1017.8 - 0.0 - - - - - - -
01/10:00am 25.8 E 7 9 1018.1 - 0.0 - - - - - - -
01/09:30am 25.2 ENE 7 8 1018.3 - 0.0 - - - - - - -
01/09:00am 24.9 SSW 3 6 1018.5 - 0.6 - - - - - - -
01/08:30am 24.0 S 5 6 1018.5 - 0.6 - - - - - - -
01/08:00am 23.5 SSE 5 6 1018.3 - 0.6 - - - - - - -
01/07:30am 23.2 S 5 7 1018.1 - 0.6 - - - - - - -
01/07:00am 22.9 SSW 4 6 1017.9 - 0.6 - - - - - - -
01/06:30am 23.0 SW 3 4 1017.6 - 0.6 - - - - - - -
01/06:00am 22.9 CALM 0 0 1017.5 - 0.6 - - - - - - -
01/05:30am 22.9 SW 3 4 1017.2 - 0.6 - - - - - - -
01/05:00am 22.9 SW 3 4 1016.9 - 0.6 - - - - - - -
01/04:30am 23.0 CALM 0 4 1016.8 - 0.6 - - - - - - -
01/04:00am 23.0 S 3 4 1016.7 - 0.6 - - - - - - -
01/03:30am 22.9 SW 1 3 1016.8 - 0.4 - - - - - - -
01/03:00am 23.1 SW 3 5 1016.9 - 0.4 - - - - - - -
01/02:30am 23.3 SSW 3 5 1016.9 - 0.4 - - - - - - -
01/02:00am 23.7 SW 3 7 1017.0 - 0.4 - - - - - - -
01/01:30am 23.4 S 2 3 1017.1 - 0.4 - - - - - - -
01/01:00am 23.7 E 3 5 1017.3 - 0.4 - - - - - - -
01/12:30am 23.5 N 3 4 1017.4 - 0.4 - - - - - - -
01/12:00am 23.8 ENE 2 4 1017.6 - 0.4 Recent precip. - - - - - -
 
Date/Time
EST
Temp

°C
Wind Pressure Rain
since 9am
mm
Weather Cloud Vis
km
Sea
Height
m
Swell
Dir
 
Speed
knots
Gust
knots
hPa Trend Height
m
Period
s
Dir
30/11:30pm 24.3 E 5 7 1017.8 - 0.4 - - - - - - -
30/11:00pm 23.7 ESE 3 6 1017.9 - 0.0 - - - - - - -
30/10:30pm 24.3 E 6 7 1018.0 - 0.0 - - - - - - -
30/10:00pm 23.7 ESE 3 5 1018.1 - 0.0 - - - - - - -
30/09:30pm 23.5 ENE 4 5 1018.0 - 0.0 - - - - - - -
30/09:00pm 23.4 ESE 3 4 1018.1 - 0.0 - - - - - - -
30/08:30pm 23.7 E 1 4 1018.0 - 0.0 - - - - - - -
30/08:00pm 24.5 E 3 4 1017.8 - 0.0 - - - - - - -
30/07:30pm 24.5 ESE 3 4 1017.6 - 0.0 - - - - - - -
30/07:00pm 24.7 E 6 7 1017.3 - 0.0 - - - - - - -
30/06:30pm 24.7 ENE 7 8 1016.8 - 0.0 - - - - - - -
30/06:00pm 24.8 ENE 8 10 1016.7 - 0.0 - - - - - - -
30/05:30pm 24.9 ENE 7 9 1016.6 - 0.0 - - - - - - -
30/05:00pm 25.3 E 7 9 1016.7 - 0.0 - - - - - - -
30/04:30pm 25.5 E 8 10 1016.3 - 0.0 - - - - - - -
30/04:00pm 25.6 E 9 11 1016.4 - 0.0 - - - - - - -
30/03:30pm 25.7 E 9 11 1016.3 - 0.0 - - - - - - -
30/03:00pm 26.0 E 10 12 1016.2 - 0.0 - - - - - - -
30/02:30pm 26.0 E 10 12 1016.2 - 0.0 - - - - - - -
30/02:00pm 26.0 E 10 12 1016.5 - 0.0 - - - - - - -
30/01:30pm 26.1 E 9 10 1016.7 - 0.0 - - - - - - -
30/01:00pm 25.8 E 9 10 1017.2 - 0.0 - - - - - - -
30/12:30pm 25.9 E 8 10 1017.6 - 0.0 - - - - - - -
30/12:00pm 25.9 E 10 12 1018.1 - 0.0 - - - - - - -
30/11:30am 25.6 ENE 9 11 1018.5 - 0.0 - - - - - - -
30/11:00am 25.2 ENE 8 10 1018.9 - 0.0 - - - - - - -
30/10:30am 25.2 E 10 12 1019.1 - 0.0 - - - - - - -
30/10:00am 25.2 E 7 9 1019.4 - 0.0 - - - - - - -
30/09:30am 24.4 ESE 8 11 1019.6 - 0.0 - - - - - - -
30/09:00am 24.5 ESE 7 10 1019.7 - 0.2 - - - - - - -
30/08:30am 24.2 SE 7 11 1019.6 - 0.2 - - - - - - -
30/08:00am 23.5 SE 8 12 1019.4 - 0.2 - - - - - - -
30/07:30am 22.4 S 5 6 1019.4 - 0.2 - - - - - - -
30/07:00am 21.7 SSE 5 7 1019.2 - 0.2 - - - - - - -
30/06:30am 21.6 S 5 7 1018.7 - 0.2 - - - - - - -
30/06:00am 21.6 S 6 8 1018.5 - 0.2 - - - - - - -
30/05:30am 21.9 S 6 9 1018.2 - 0.2 - - - - - - -
30/05:00am 22.4 S 6 8 1017.9 - 0.2 - - - - - - -
30/04:30am 22.6 SSE 6 9 1017.7 - 0.2 - - - - - - -
30/04:00am 22.7 SSE 6 8 1017.7 - 0.2 - - - - - - -
30/03:30am 22.8 SSE 7 11 1017.7 - 0.2 - - - - - - -
30/03:00am 23.0 SSE 6 10 1018.0 - 0.2 - - - - - - -
30/02:30am 23.1 SSE 7 10 1018.2 - 0.2 - - - - - - -
30/02:00am 23.4 SSE 7 11 1018.5 - 0.2 - - - - - - -
30/01:30am 23.6 SSE 6 8 1018.6 - 0.2 - - - - - - -
30/01:00am 24.1 ESE 8 12 1018.8 - 0.2 - - - - - - -
30/12:30am 24.2 ESE 8 12 1019.2 - 0.2 - - - - - - -
30/12:00am 24.3 ESE 8 12 1019.4 - 0.2 - - - - - - -
 
Date/Time
EST
Temp

°C
Wind Pressure Rain
since 9am
mm
Weather Cloud Vis
km
Sea
Height
m
Swell
Dir
 
Speed
knots
Gust
knots
hPa Trend Height
m
Period
s
Dir
29/11:30pm 24.3 ESE 9 12 1019.5 - 0.2 - - - - - - -
29/11:00pm 24.4 ESE 9 15 1019.6 - 0.2 - - - - - - -
29/10:30pm 24.5 E 9 13 1019.6 - 0.2 - - - - - - -
29/10:00pm 24.5 E 9 13 1019.6 - 0.2 - - - - - - -
29/09:30pm 24.7 E 11 15 1019.6 - 0.2 - - - - - - -
29/09:00pm 24.7 E 9 13 1019.5 - 0.2 - - - - - - -
29/08:30pm 24.7 E 8 11 1019.4 - 0.2 - - - - - - -
29/08:00pm 24.4 ESE 6 11 1019.3 - 0.2 - - - - - - -
29/07:30pm 24.4 ESE 7 11 1019.0 - 0.2 - - - - - - -
29/07:00pm 24.4 SE 8 13 1018.7 - 0.2 - - - - - - -
29/06:30pm 24.1 ESE 10 17 1018.6 - 0.2 - - - - - - -
29/06:00pm 24.4 E 10 15 1018.3 - 0.2 - - - - - - -
29/05:30pm 24.4 ESE 9 15 1018.0 - 0.2 - - - - - - -
29/05:00pm 25.0 E 8 14 1017.5 - 0.2 - - - - - - -
29/04:30pm 25.1 ESE 10 14 1017.4 - 0.2 - - - - - - -
29/04:00pm 25.3 ESE 11 16 1017.3 - 0.2 - - - - - - -
29/03:30pm 25.2 ESE 9 14 1017.1 - 0.2 - - - - - - -
29/03:00pm 25.7 ESE 10 14 1017.0 - 0.2 - - - - - - -
29/02:30pm 26.1 ESE 10 16 1016.9 - 0.2 - - - - - - -
29/02:00pm 25.4 ESE 11 15 1017.1 - 0.2 - - - - - - -
29/01:30pm 25.7 ESE 10 16 1017.3 - 0.2 - - - - - - -
29/01:00pm 26.0 ESE 12 18 1017.5 - 0.2 - - - - - - -
29/12:30pm 25.7 ESE 12 17 1018.1 - 0.2 - - - - - - -
29/12:00pm 25.7 ESE 10 16 1018.6 - 0.2 - - - - - - -
29/11:30am 25.5 ESE 11 18 1019.1 - 0.2 - - - - - - -
29/11:00am 25.2 ESE 12 18 1019.7 - 0.2 - - - - - - -
29/10:30am 25.0 ESE 9 14 1020.1 - 0.0 - - - - - - -
29/10:00am 24.5 ESE 9 13 1020.4 - 0.0 - - - - - - -
29/09:30am 23.9 ESE 9 15 1020.5 - 0.0 - - - - - - -
29/09:00am 23.8 ESE 9 14 1020.4 - 12.8 - - - - - - -
29/08:30am 23.8 ESE 12 18 1020.2 - 12.8 - - - - - - -
29/08:00am 23.5 ESE 12 19 1020.0 - 12.8 - - - - - - -
29/07:30am 23.2 SE 8 12 1019.7 - 12.8 - - - - - - -
29/07:00am 22.7 SE 7 11 1019.6 - 12.8 - - - - - - -
29/06:30am 22.4 SE 8 12 1019.3 - 12.8 - - - - - - -
29/06:00am 22.4 SE 7 11 1019.1 - 12.8 - - - - - - -
29/05:30am 22.4 SE 8 10 1019.0 - 12.8 - - - - - - -

Other Formats:

Comma delimited format used in spreadsheet applications
http://www.bom.gov.au/fwo/IDQ60701/IDQ60701.94373.axf

JavaScript Object Notation format (JSON) in row-major order
http://www.bom.gov.au/fwo/IDQ60701/IDQ60701.94373.json